createdAt,value
2022-10-18T00:00:46.499Z,97.07
2022-10-18T00:01:46.605Z,96.77
2022-10-18T00:02:46.600Z,97.17
2022-10-18T00:03:46.498Z,97.78
2022-10-18T00:04:46.460Z,98.83
2022-10-18T00:05:46.496Z,99.64
2022-10-18T00:06:46.461Z,99.99
2022-10-18T00:07:46.452Z,99.99
2022-10-18T00:08:46.460Z,99.99
2022-10-18T00:09:46.433Z,99.99
2022-10-18T00:10:46.459Z,99.99
2022-10-18T00:11:46.400Z,99.99
2022-10-18T00:13:46.449Z,99.99
2022-10-18T00:14:46.365Z,99.99
2022-10-18T00:15:46.402Z,99.99
2022-10-18T00:16:46.386Z,99.99
2022-10-18T00:17:46.416Z,99.99
2022-10-18T00:18:46.327Z,99.99
2022-10-18T00:19:46.305Z,99.99
2022-10-18T00:20:46.324Z,99.99
2022-10-18T00:21:46.317Z,99.99
2022-10-18T00:22:46.324Z,99.99
2022-10-18T00:23:46.317Z,99.99
2022-10-18T00:24:46.265Z,99.99
2022-10-18T00:25:46.254Z,99.99
2022-10-18T00:26:46.255Z,99.99
2022-10-18T00:27:46.282Z,99.99
2022-10-18T00:28:46.424Z,99.99
2022-10-18T00:29:46.377Z,99.99
2022-10-18T00:30:46.412Z,99.99
2022-10-18T00:31:46.201Z,99.99
2022-10-18T00:32:46.242Z,99.99
2022-10-18T00:33:46.259Z,99.99
2022-10-18T00:34:46.225Z,99.99
2022-10-18T00:35:46.183Z,99.99
2022-10-18T00:36:46.130Z,99.99
2022-10-18T00:37:46.154Z,99.99
2022-10-18T00:38:46.173Z,99.99
2022-10-18T00:39:46.255Z,99.99
2022-10-18T00:40:46.087Z,99.99
2022-10-18T00:41:46.074Z,99.99
2022-10-18T00:42:46.137Z,99.99
2022-10-18T00:43:46.062Z,99.99
2022-10-18T00:44:46.457Z,99.99
2022-10-18T00:45:46.106Z,99.99
2022-10-18T00:46:46.104Z,99.99
2022-10-18T00:47:46.055Z,99.99
2022-10-18T00:48:46.076Z,99.99
2022-10-18T00:49:46.107Z,99.99
2022-10-18T00:50:46.006Z,99.99
2022-10-18T00:51:45.980Z,99.99
2022-10-18T00:52:46.089Z,99.99
2022-10-18T00:53:45.980Z,99.99
2022-10-18T00:54:46.010Z,99.99
2022-10-18T00:55:46.019Z,99.99
2022-10-18T00:56:46.019Z,99.99
2022-10-18T00:57:46.041Z,99.99
2022-10-18T00:58:45.895Z,99.99
2022-10-18T00:59:45.904Z,99.99
2022-10-18T01:00:45.924Z,99.99
2022-10-18T01:01:46.048Z,99.99
2022-10-18T01:02:45.869Z,99.99
2022-10-18T01:03:45.861Z,99.99
2022-10-18T01:04:45.835Z,99.99
2022-10-18T01:05:45.873Z,99.99
2022-10-18T01:06:45.899Z,99.99
2022-10-18T01:07:45.909Z,99.99
2022-10-18T01:08:45.940Z,99.99
2022-10-18T01:09:45.852Z,99.99
2022-10-18T01:10:45.828Z,99.99
2022-10-18T01:11:45.855Z,99.99
2022-10-18T01:12:45.764Z,99.99
2022-10-18T01:13:45.800Z,99.99
2022-10-18T01:14:45.829Z,99.99
2022-10-18T01:15:45.816Z,99.99
2022-10-18T01:16:45.788Z,99.99
2022-10-18T01:17:45.770Z,99.99
2022-10-18T01:18:45.786Z,99.99
2022-10-18T01:19:45.757Z,99.99
2022-10-18T01:20:45.784Z,99.99
2022-10-18T01:21:45.686Z,99.99
2022-10-18T01:22:45.662Z,99.99
2022-10-18T01:23:45.682Z,99.99
2022-10-18T01:24:45.659Z,99.99
2022-10-18T01:25:45.746Z,99.99
2022-10-18T01:26:45.638Z,99.99
2022-10-18T01:27:45.654Z,99.99
2022-10-18T01:28:45.680Z,99.99
2022-10-18T01:29:45.660Z,99.99
2022-10-18T01:30:45.633Z,99.99
2022-10-18T01:31:45.607Z,99.99
2022-10-18T01:32:45.576Z,99.99
2022-10-18T01:33:45.591Z,99.99
2022-10-18T01:34:45.577Z,99.99
2022-10-18T01:35:45.542Z,99.99
2022-10-18T01:36:45.539Z,99.99
2022-10-18T01:37:45.544Z,99.99
2022-10-18T01:38:45.578Z,99.99
2022-10-18T01:39:45.506Z,99.99
2022-10-18T01:40:45.472Z,99.99
2022-10-18T01:41:45.534Z,99.99
2022-10-18T01:42:45.463Z,99.99
2022-10-18T01:43:45.536Z,99.99
2022-10-18T01:44:45.505Z,99.99
2022-10-18T01:45:45.462Z,99.99
2022-10-18T01:46:45.515Z,99.99
2022-10-18T01:47:45.472Z,99.99
2022-10-18T01:48:45.441Z,99.99
2022-10-18T01:49:45.403Z,99.99
2022-10-18T01:50:45.469Z,99.99
2022-10-18T01:51:45.368Z,99.99
2022-10-18T01:52:45.397Z,99.99
2022-10-18T01:53:45.370Z,99.99
2022-10-18T01:54:45.413Z,99.99
2022-10-18T01:55:45.337Z,99.99
2022-10-18T01:56:45.392Z,99.99
2022-10-18T01:57:45.342Z,99.99
2022-10-18T01:58:45.294Z,99.99
2022-10-18T01:59:45.306Z,99.99
2022-10-18T02:00:45.302Z,99.99
2022-10-18T02:01:45.311Z,99.99
2022-10-18T02:02:45.307Z,99.99
2022-10-18T02:03:45.242Z,99.99
2022-10-18T02:04:45.268Z,99.99
2022-10-18T02:05:45.254Z,99.99
2022-10-18T02:06:45.327Z,99.99
2022-10-18T02:07:51.886Z,99.99
2022-10-18T02:08:45.227Z,99.99
2022-10-18T02:09:45.268Z,99.99
2022-10-18T02:10:45.226Z,99.99
2022-10-18T02:11:45.189Z,99.99
2022-10-18T02:12:45.264Z,99.99
2022-10-18T02:13:45.234Z,99.99
2022-10-18T02:14:45.180Z,99.99
2022-10-18T02:15:45.131Z,99.99
2022-10-18T02:16:45.127Z,99.99
2022-10-18T02:17:45.167Z,99.99
2022-10-18T02:18:45.160Z,99.99
2022-10-18T02:19:45.135Z,99.99
2022-10-18T02:20:45.074Z,99.99
2022-10-18T02:21:45.071Z,99.99
2022-10-18T02:22:45.104Z,99.99
2022-10-18T02:23:45.057Z,99.99
2022-10-18T02:24:45.066Z,99.99
2022-10-18T02:25:45.054Z,99.99
2022-10-18T02:26:45.053Z,99.99
2022-10-18T02:27:45.026Z,99.99
2022-10-18T02:28:45.025Z,99.99
2022-10-18T02:29:44.992Z,99.99
2022-10-18T02:30:44.967Z,99.99
2022-10-18T02:31:44.960Z,99.99
2022-10-18T02:32:44.985Z,99.99
2022-10-18T02:33:45.028Z,99.99
2022-10-18T02:34:44.959Z,99.99
2022-10-18T02:35:44.939Z,99.99
2022-10-18T02:36:44.924Z,99.99
2022-10-18T02:37:44.999Z,99.99
2022-10-18T02:38:44.902Z,99.99
2022-10-18T02:39:44.892Z,99.99
2022-10-18T02:40:45.199Z,99.99
2022-10-18T02:41:44.882Z,99.99
2022-10-18T02:42:44.855Z,99.99
2022-10-18T02:43:44.868Z,99.99
2022-10-18T02:44:44.826Z,99.99
2022-10-18T02:45:44.835Z,99.99
2022-10-18T02:46:44.811Z,99.99
2022-10-18T02:47:44.842Z,99.99
2022-10-18T02:48:44.796Z,99.99
2022-10-18T02:49:44.862Z,99.99
2022-10-18T02:50:44.767Z,99.99
2022-10-18T02:51:44.713Z,99.99
2022-10-18T02:52:44.778Z,99.99
2022-10-18T02:53:44.785Z,99.99
2022-10-18T02:54:44.764Z,99.99
2022-10-18T02:55:44.774Z,99.99
2022-10-18T02:56:44.746Z,99.99
2022-10-18T02:57:44.849Z,99.99
2022-10-18T02:58:44.679Z,99.99
2022-10-18T02:59:44.840Z,99.99
2022-10-18T03:00:44.672Z,99.99
2022-10-18T03:01:44.746Z,99.99
2022-10-18T03:02:44.653Z,99.99
2022-10-18T03:03:44.677Z,99.99
2022-10-18T03:04:44.645Z,99.99
2022-10-18T03:05:44.658Z,99.99
2022-10-18T03:06:44.616Z,99.99
2022-10-18T03:07:44.657Z,99.99
2022-10-18T03:08:44.602Z,99.99
2022-10-18T03:09:44.619Z,99.99
2022-10-18T03:10:44.605Z,99.99
2022-10-18T03:11:44.640Z,99.99
2022-10-18T03:12:44.629Z,99.99
2022-10-18T03:13:44.579Z,99.99
2022-10-18T03:14:44.581Z,99.99
2022-10-18T03:15:44.576Z,99.99
2022-10-18T03:16:44.518Z,99.99
2022-10-18T03:17:44.537Z,99.99
2022-10-18T03:18:44.513Z,99.99
2022-10-18T03:19:44.527Z,99.99
2022-10-18T03:20:44.512Z,99.99
2022-10-18T03:21:44.474Z,99.99
2022-10-18T03:22:44.516Z,99.99
2022-10-18T03:23:44.463Z,99.99
2022-10-18T03:24:44.430Z,99.99
2022-10-18T03:25:46.392Z,99.99
2022-10-18T03:26:44.411Z,99.99
2022-10-18T03:27:44.458Z,99.99
2022-10-18T03:28:44.476Z,99.99
2022-10-18T03:29:44.393Z,99.99
2022-10-18T03:30:44.427Z,99.99
2022-10-18T03:31:44.374Z,99.99
2022-10-18T03:32:44.390Z,99.99
2022-10-18T03:33:44.433Z,99.99
2022-10-18T03:34:44.375Z,99.99
2022-10-18T03:35:44.348Z,99.99
2022-10-18T03:36:44.336Z,99.99
2022-10-18T03:37:44.353Z,99.99
2022-10-18T03:38:44.390Z,99.99
2022-10-18T03:39:44.335Z,99.99
2022-10-18T03:40:44.271Z,99.99
2022-10-18T03:41:44.258Z,99.99
2022-10-18T03:42:44.270Z,99.99
2022-10-18T03:43:44.267Z,99.99
2022-10-18T03:44:44.304Z,99.99
2022-10-18T03:45:44.270Z,99.99
2022-10-18T03:46:44.298Z,99.99
2022-10-18T03:47:44.291Z,99.99
2022-10-18T03:48:44.271Z,99.99
2022-10-18T03:49:44.184Z,99.99
2022-10-18T03:50:44.183Z,99.99
2022-10-18T03:51:44.168Z,99.99
2022-10-18T03:52:44.263Z,99.99
2022-10-18T03:53:44.153Z,99.99
2022-10-18T03:54:44.114Z,99.99
2022-10-18T03:55:44.172Z,99.99
2022-10-18T03:56:44.126Z,99.99
2022-10-18T03:57:44.101Z,99.99
2022-10-18T03:58:44.053Z,99.99
2022-10-18T03:59:44.117Z,99.99
2022-10-18T04:00:44.092Z,99.99
2022-10-18T04:01:44.164Z,99.99
2022-10-18T04:02:44.120Z,99.99
2022-10-18T04:03:44.109Z,99.99
2022-10-18T04:04:44.062Z,99.99
2022-10-18T04:05:44.076Z,99.99
2022-10-18T04:06:44.011Z,99.99
2022-10-18T04:07:44.027Z,99.99
2022-10-18T04:08:44.001Z,99.99
2022-10-18T04:09:44.002Z,99.99
2022-10-18T04:10:43.961Z,99.99
2022-10-18T04:11:43.988Z,99.99
2022-10-18T04:12:43.974Z,99.99
2022-10-18T04:13:43.945Z,99.99
2022-10-18T04:14:43.960Z,99.99
2022-10-18T04:15:44.198Z,99.99
2022-10-18T04:16:43.838Z,99.99
2022-10-18T04:17:43.861Z,99.99
2022-10-18T04:18:43.910Z,99.99
2022-10-18T04:19:43.867Z,99.99
2022-10-18T04:20:43.921Z,99.99
2022-10-18T04:21:43.872Z,99.99
2022-10-18T04:22:43.800Z,99.99
2022-10-18T04:23:43.827Z,99.99
2022-10-18T04:24:43.814Z,99.99
2022-10-18T04:26:43.801Z,99.99
2022-10-18T04:27:43.817Z,99.99
2022-10-18T04:28:43.827Z,99.99
2022-10-18T04:29:43.814Z,99.99
2022-10-18T04:30:43.786Z,99.99
2022-10-18T04:31:43.746Z,99.99
2022-10-18T04:32:43.725Z,99.99
2022-10-18T04:33:43.736Z,99.99
2022-10-18T04:35:43.736Z,99.99
2022-10-18T04:36:43.750Z,99.99
2022-10-18T04:37:43.703Z,99.99
2022-10-18T04:38:43.712Z,99.99
2022-10-18T04:39:43.671Z,99.99
2022-10-18T04:40:43.659Z,99.99
2022-10-18T04:41:43.669Z,99.99
2022-10-18T04:42:43.636Z,99.99
2022-10-18T04:43:43.615Z,99.99
2022-10-18T04:44:43.572Z,99.99
2022-10-18T04:45:43.644Z,99.99
2022-10-18T04:46:43.662Z,99.99
2022-10-18T04:47:43.580Z,99.99
2022-10-18T04:48:43.637Z,99.99
2022-10-18T04:49:43.583Z,99.99
2022-10-18T04:50:43.486Z,99.99
2022-10-18T04:51:43.527Z,99.99
2022-10-18T04:52:43.645Z,99.99
2022-10-18T04:53:43.551Z,99.99
2022-10-18T04:54:43.550Z,99.99
2022-10-18T04:55:43.643Z,99.99
2022-10-18T04:56:43.506Z,99.99
2022-10-18T04:57:43.511Z,99.99
2022-10-18T04:58:43.515Z,99.99
2022-10-18T04:59:43.802Z,99.99
2022-10-18T05:00:43.486Z,99.99
2022-10-18T05:01:43.603Z,99.99
2022-10-18T05:02:43.487Z,99.99
2022-10-18T05:03:43.410Z,99.99
2022-10-18T05:04:43.454Z,99.99
2022-10-18T05:06:00.607Z,99.99
2022-10-18T05:06:43.426Z,99.99
2022-10-18T05:07:43.414Z,99.99
2022-10-18T05:08:43.404Z,99.99
2022-10-18T05:09:43.400Z,99.99
2022-10-18T05:10:43.343Z,99.99
2022-10-18T05:11:43.321Z,99.99
2022-10-18T05:12:43.369Z,99.99
2022-10-18T05:13:45.964Z,99.99
2022-10-18T05:14:43.317Z,99.99
2022-10-18T05:15:43.355Z,99.99
2022-10-18T05:16:43.282Z,99.99
2022-10-18T05:17:43.269Z,99.99
2022-10-18T05:18:43.306Z,99.99
2022-10-18T05:19:43.206Z,99.99
2022-10-18T05:20:43.266Z,99.99
2022-10-18T05:21:43.277Z,99.99
2022-10-18T05:22:43.247Z,99.99
2022-10-18T05:23:43.212Z,99.99
2022-10-18T05:24:43.270Z,99.99
2022-10-18T05:25:43.202Z,99.99
2022-10-18T05:26:43.173Z,99.99
2022-10-18T05:27:43.183Z,99.99
2022-10-18T05:28:43.227Z,99.99
2022-10-18T05:29:43.161Z,99.99
2022-10-18T05:30:43.124Z,99.99
2022-10-18T05:31:43.194Z,99.99
2022-10-18T05:32:43.157Z,99.99
2022-10-18T05:33:43.183Z,99.99
2022-10-18T05:34:43.706Z,99.99
2022-10-18T05:35:43.112Z,99.99
2022-10-18T05:36:43.107Z,99.99
2022-10-18T05:37:43.075Z,99.99
2022-10-18T05:38:43.403Z,99.99
2022-10-18T05:39:43.034Z,99.99
2022-10-18T05:40:43.047Z,99.99
2022-10-18T05:41:43.041Z,99.99
2022-10-18T05:42:43.064Z,99.99
2022-10-18T05:43:42.972Z,99.99
2022-10-18T05:44:43.000Z,99.99
2022-10-18T05:45:43.786Z,99.99
2022-10-18T05:46:43.086Z,99.99
2022-10-18T05:47:43.036Z,99.99
2022-10-18T05:48:42.969Z,99.99
2022-10-18T05:49:42.912Z,99.99
2022-10-18T05:50:42.939Z,99.99
2022-10-18T05:51:42.915Z,99.99
2022-10-18T05:52:42.887Z,99.99
2022-10-18T05:53:42.954Z,99.99
2022-10-18T05:54:42.872Z,99.99
2022-10-18T05:55:42.914Z,99.99
2022-10-18T05:56:42.974Z,99.99
2022-10-18T05:57:42.880Z,99.99
2022-10-18T05:58:42.873Z,99.99
2022-10-18T05:59:43.020Z,99.99
2022-10-18T06:00:42.796Z,99.99
2022-10-18T06:01:42.843Z,99.99
2022-10-18T06:02:42.876Z,99.99
2022-10-18T06:03:42.758Z,99.99
2022-10-18T06:04:42.981Z,99.99
2022-10-18T06:05:42.798Z,99.99
2022-10-18T06:06:42.759Z,99.99
2022-10-18T06:07:42.721Z,99.99
2022-10-18T06:08:42.751Z,99.99
2022-10-18T06:09:42.725Z,99.99
2022-10-18T06:10:42.727Z,99.99
2022-10-18T06:11:42.692Z,99.99
2022-10-18T06:12:42.701Z,99.99
2022-10-18T06:13:43.017Z,99.99
2022-10-18T06:14:42.673Z,99.99
2022-10-18T06:15:42.713Z,99.99
2022-10-18T06:16:42.698Z,99.99
2022-10-18T06:17:42.624Z,99.99
2022-10-18T06:18:42.667Z,99.99
2022-10-18T06:19:42.661Z,99.99
2022-10-18T06:20:42.655Z,99.99
2022-10-18T06:21:42.580Z,99.99
2022-10-18T06:22:42.622Z,99.99
2022-10-18T06:23:42.574Z,99.99
2022-10-18T06:24:42.575Z,99.99
2022-10-18T06:25:42.608Z,99.99
2022-10-18T06:26:42.593Z,99.99
2022-10-18T06:27:42.527Z,99.99
2022-10-18T06:28:42.588Z,99.99
2022-10-18T06:29:42.527Z,99.99
2022-10-18T06:30:42.520Z,99.99
2022-10-18T06:31:42.480Z,99.99
2022-10-18T06:32:42.596Z,99.99
2022-10-18T06:33:42.512Z,99.99
2022-10-18T06:34:42.532Z,99.99
2022-10-18T06:35:42.509Z,99.99
2022-10-18T06:36:42.477Z,99.99
2022-10-18T06:38:42.426Z,99.99
2022-10-18T06:39:42.424Z,99.99
2022-10-18T06:40:42.405Z,99.99
2022-10-18T06:41:42.402Z,99.99
2022-10-18T06:42:47.692Z,99.99
2022-10-18T06:43:42.363Z,99.99
2022-10-18T06:44:42.479Z,99.99
2022-10-18T06:45:42.400Z,99.99
2022-10-18T06:46:42.452Z,99.99
2022-10-18T06:47:42.338Z,99.99
2022-10-18T06:48:42.343Z,99.99
2022-10-18T06:49:42.343Z,99.99
2022-10-18T06:50:42.318Z,99.99
2022-10-18T06:51:42.319Z,99.99
2022-10-18T06:52:42.299Z,99.99
2022-10-18T06:53:44.522Z,99.99
2022-10-18T06:54:45.220Z,99.99
2022-10-18T06:55:42.382Z,99.99
2022-10-18T06:56:42.336Z,99.99
2022-10-18T06:57:42.232Z,99.99
2022-10-18T06:58:42.234Z,99.99
2022-10-18T06:59:42.200Z,99.99
2022-10-18T07:00:42.209Z,99.99
2022-10-18T07:01:42.303Z,99.99
2022-10-18T07:02:42.159Z,99.99
2022-10-18T07:03:42.886Z,99.99
2022-10-18T07:04:42.154Z,99.99
2022-10-18T07:05:42.160Z,99.99
2022-10-18T07:06:42.150Z,99.99
2022-10-18T07:07:42.135Z,99.99
2022-10-18T07:08:42.121Z,99.99
2022-10-18T07:09:42.123Z,99.99
2022-10-18T07:10:42.161Z,99.99
2022-10-18T07:11:42.129Z,99.99
2022-10-18T07:12:42.075Z,99.99
2022-10-18T07:13:42.050Z,99.99
2022-10-18T07:14:42.047Z,99.99
2022-10-18T07:15:42.065Z,99.99
2022-10-18T07:16:42.030Z,99.99
2022-10-18T07:17:42.022Z,99.99
2022-10-18T07:18:42.054Z,99.99
2022-10-18T07:19:41.999Z,99.99
2022-10-18T07:20:42.015Z,99.99
2022-10-18T07:21:41.973Z,99.99
2022-10-18T07:22:41.964Z,99.99
2022-10-18T07:23:41.982Z,99.99
2022-10-18T07:24:41.944Z,99.99
2022-10-18T07:25:41.980Z,99.99
2022-10-18T07:26:41.967Z,99.99
2022-10-18T07:27:41.958Z,99.99
2022-10-18T07:28:42.010Z,99.99
2022-10-18T07:29:43.028Z,99.99
2022-10-18T07:30:41.926Z,99.99
2022-10-18T07:31:41.916Z,99.99
2022-10-18T07:32:41.955Z,99.99
2022-10-18T07:33:41.865Z,99.99
2022-10-18T07:34:42.024Z,99.99
2022-10-18T07:35:41.828Z,99.99
2022-10-18T07:36:41.880Z,99.99
2022-10-18T07:37:41.815Z,99.99
2022-10-18T07:38:41.823Z,99.99
2022-10-18T07:39:41.813Z,99.99
2022-10-18T07:40:41.844Z,99.99
2022-10-18T07:41:41.786Z,99.99
2022-10-18T07:42:41.799Z,99.99
2022-10-18T07:43:41.785Z,99.99
2022-10-18T07:44:41.809Z,99.99
2022-10-18T07:45:41.735Z,99.99
2022-10-18T07:46:41.743Z,99.99
2022-10-18T07:47:42.021Z,99.99
2022-10-18T07:48:41.739Z,99.99
2022-10-18T07:49:41.772Z,99.99
2022-10-18T07:50:41.726Z,99.99
2022-10-18T07:51:41.681Z,99.99
2022-10-18T07:52:41.731Z,99.99
2022-10-18T07:53:41.773Z,99.99
2022-10-18T07:54:41.693Z,99.99
2022-10-18T07:55:41.623Z,99.99
2022-10-18T07:56:41.701Z,99.99
2022-10-18T07:57:41.793Z,99.99
2022-10-18T07:58:41.620Z,99.99
2022-10-18T07:59:41.614Z,99.99
2022-10-18T08:00:41.593Z,99.99
2022-10-18T08:01:41.669Z,99.99
2022-10-18T08:02:41.554Z,99.99
2022-10-18T08:03:41.553Z,99.99
2022-10-18T08:04:41.543Z,99.99
2022-10-18T08:05:41.537Z,99.99
2022-10-18T08:06:41.580Z,99.99
2022-10-18T08:07:41.529Z,99.99
2022-10-18T08:08:41.634Z,99.99
2022-10-18T08:09:41.493Z,99.99
2022-10-18T08:10:41.572Z,99.99
2022-10-18T08:11:41.484Z,99.99
2022-10-18T08:12:41.454Z,99.99
2022-10-18T08:13:41.612Z,99.99
2022-10-18T08:14:41.448Z,99.99
2022-10-18T08:15:41.494Z,99.99
2022-10-18T08:16:41.496Z,99.99
2022-10-18T08:17:41.400Z,99.99
2022-10-18T08:18:41.521Z,99.99
2022-10-18T08:19:52.796Z,99.99
2022-10-18T08:20:41.474Z,99.99
2022-10-18T08:21:41.468Z,99.99
2022-10-18T08:22:41.425Z,99.99
2022-10-18T08:23:41.382Z,99.99
2022-10-18T08:24:41.421Z,99.99
2022-10-18T08:25:41.377Z,99.99
2022-10-18T08:26:41.357Z,99.99
2022-10-18T08:27:41.545Z,99.99
2022-10-18T08:28:46.040Z,99.99
2022-10-18T08:29:41.357Z,99.99
2022-10-18T08:30:41.297Z,99.99
2022-10-18T08:31:41.280Z,99.99
2022-10-18T08:32:41.295Z,99.99
2022-10-18T08:33:41.271Z,99.99
2022-10-18T08:34:41.258Z,99.99
2022-10-18T08:35:41.260Z,99.99
2022-10-18T08:36:41.230Z,99.99
2022-10-18T08:37:41.238Z,99.99
2022-10-18T08:38:41.207Z,99.99
2022-10-18T08:39:41.213Z,99.99
2022-10-18T08:40:41.273Z,99.99
2022-10-18T08:41:41.182Z,99.99
2022-10-18T08:42:41.241Z,99.99
2022-10-18T08:43:41.197Z,99.99
2022-10-18T08:44:41.133Z,99.99
2022-10-18T08:45:43.123Z,99.99
2022-10-18T08:46:41.121Z,99.99
2022-10-18T08:47:41.155Z,99.99
2022-10-18T08:48:41.112Z,99.99
2022-10-18T08:49:46.293Z,99.99
2022-10-18T08:50:41.104Z,99.99
2022-10-18T08:51:41.075Z,99.99
2022-10-18T08:53:41.116Z,99.99
2022-10-18T08:54:41.024Z,99.99
2022-10-18T08:55:41.049Z,99.99
2022-10-18T08:56:41.013Z,99.99
2022-10-18T08:57:41.027Z,99.99
2022-10-18T08:58:41.057Z,99.99
2022-10-18T08:59:41.257Z,99.99
2022-10-18T09:00:40.999Z,99.99
2022-10-18T09:01:41.104Z,99.99
2022-10-18T09:02:40.950Z,99.99
2022-10-18T09:03:41.054Z,99.99
2022-10-18T09:04:40.953Z,99.99
2022-10-18T09:05:40.979Z,99.99
2022-10-18T09:06:40.976Z,99.99
2022-10-18T09:07:40.925Z,99.99
2022-10-18T09:08:40.893Z,99.99
2022-10-18T09:09:40.925Z,99.99
2022-10-18T09:10:40.871Z,99.99
2022-10-18T09:11:40.866Z,99.99
2022-10-18T09:12:40.873Z,99.99
2022-10-18T09:13:40.842Z,99.99
2022-10-18T09:14:40.850Z,99.99
2022-10-18T09:15:40.846Z,99.99
2022-10-18T09:16:40.838Z,99.99
2022-10-18T09:17:40.806Z,99.99
2022-10-18T09:18:40.805Z,99.99
2022-10-18T09:19:40.804Z,99.99
2022-10-18T09:20:40.814Z,99.99
2022-10-18T09:21:40.816Z,99.99
2022-10-18T09:22:40.746Z,99.99
2022-10-18T09:23:40.745Z,99.99
2022-10-18T09:24:40.738Z,99.99
2022-10-18T09:25:40.765Z,99.99
2022-10-18T09:26:40.723Z,99.99
2022-10-18T09:27:40.732Z,99.99
2022-10-18T09:28:40.733Z,99.99
2022-10-18T09:29:40.723Z,99.99
2022-10-18T09:30:40.711Z,99.99
2022-10-18T09:31:40.657Z,99.99
2022-10-18T09:32:40.678Z,99.99
2022-10-18T09:33:40.648Z,99.99
2022-10-18T09:34:40.667Z,99.99
2022-10-18T09:35:40.643Z,99.99
2022-10-18T09:36:40.625Z,99.99
2022-10-18T09:37:40.596Z,99.99
2022-10-18T09:38:40.639Z,99.99
2022-10-18T09:39:40.656Z,99.99
2022-10-18T09:40:40.561Z,99.99
2022-10-18T09:41:40.577Z,99.99
2022-10-18T09:42:40.571Z,99.99
2022-10-18T09:43:40.555Z,99.99
2022-10-18T09:44:40.549Z,99.99
2022-10-18T09:45:40.582Z,99.99
2022-10-18T09:46:40.522Z,99.99
2022-10-18T09:47:40.553Z,99.99
2022-10-18T09:48:40.489Z,99.99
2022-10-18T09:49:40.538Z,99.99
2022-10-18T09:50:40.505Z,99.99
2022-10-18T09:51:41.237Z,99.99
2022-10-18T09:52:40.467Z,99.99
2022-10-18T09:53:40.459Z,99.99
2022-10-18T09:54:40.443Z,99.99
2022-10-18T09:55:40.471Z,99.99
2022-10-18T09:56:41.939Z,99.99
2022-10-18T09:57:40.415Z,99.89
2022-10-18T09:58:40.426Z,99.34
2022-10-18T09:59:40.398Z,98.64
2022-10-18T10:00:40.394Z,98.84
2022-10-18T10:01:40.358Z,98.44
2022-10-18T10:02:40.439Z,98.13
2022-10-18T10:03:40.342Z,98.24
2022-10-18T10:04:40.377Z,97.13
2022-10-18T10:05:40.415Z,97.33
2022-10-18T10:06:40.392Z,97.43
2022-10-18T10:07:40.922Z,97.43
2022-10-18T10:08:40.289Z,98.13
2022-10-18T10:09:40.296Z,98.03
2022-10-18T10:10:40.301Z,97.63
2022-10-18T10:11:40.392Z,97.63
2022-10-18T10:12:40.234Z,97.93
2022-10-18T10:13:40.541Z,98.44
2022-10-18T10:14:40.236Z,98.33
2022-10-18T10:15:42.380Z,98.13
2022-10-18T10:16:40.233Z,98.64
2022-10-18T10:17:40.212Z,98.44
2022-10-18T10:18:40.193Z,98.90
2022-10-18T10:19:40.213Z,98.84
2022-10-18T10:20:40.178Z,98.09
2022-10-18T10:21:40.161Z,98.49
2022-10-18T10:22:40.217Z,97.69
2022-10-18T10:23:40.144Z,97.58
2022-10-18T10:24:40.152Z,97.49
2022-10-18T10:25:40.114Z,98.29
2022-10-18T10:26:40.113Z,96.88
2022-10-18T10:27:40.100Z,97.69
2022-10-18T10:28:40.093Z,97.28
2022-10-18T10:29:44.498Z,95.87
2022-10-18T10:30:40.067Z,96.37
2022-10-18T10:31:40.054Z,96.37
2022-10-18T10:32:40.048Z,96.68
2022-10-18T10:33:40.075Z,97.38
2022-10-18T10:34:42.397Z,96.68
2022-10-18T10:35:55.277Z,97.49
2022-10-18T10:36:39.985Z,98.09
2022-10-18T10:37:40.013Z,97.38
2022-10-18T10:38:40.016Z,97.58
2022-10-18T10:39:42.812Z,97.58
2022-10-18T10:40:39.944Z,97.89
2022-10-18T10:41:39.957Z,97.69
2022-10-18T10:42:39.970Z,97.64
2022-10-18T10:43:40.528Z,97.53
2022-10-18T10:44:39.897Z,97.53
2022-10-18T10:45:39.951Z,98.54
2022-10-18T10:46:39.902Z,98.14
2022-10-18T10:47:39.883Z,98.04
2022-10-18T10:48:39.894Z,97.13
2022-10-18T10:49:41.234Z,97.44
2022-10-18T10:50:39.883Z,97.03
2022-10-18T10:51:39.852Z,97.33
2022-10-18T10:52:40.191Z,96.73
2022-10-18T10:53:39.878Z,97.44
2022-10-18T10:54:39.834Z,95.93
2022-10-18T10:55:39.813Z,96.33
2022-10-18T10:56:39.830Z,95.93
2022-10-18T10:57:39.837Z,96.03
2022-10-18T10:58:39.778Z,95.83
2022-10-18T11:00:39.787Z,95.73
2022-10-18T11:01:39.779Z,95.62
2022-10-18T11:02:39.771Z,95.22
2022-10-18T11:03:41.478Z,95.37
2022-10-18T11:04:39.696Z,95.67
2022-10-18T11:05:39.749Z,96.58
2022-10-18T11:06:39.681Z,95.32
2022-10-18T11:07:39.678Z,94.76
2022-10-18T11:08:39.835Z,94.92
2022-10-18T11:09:39.732Z,95.57
2022-10-18T11:10:39.711Z,95.97
2022-10-18T11:11:39.651Z,94.92
2022-10-18T11:12:39.621Z,95.53
2022-10-18T11:13:39.604Z,95.02
2022-10-18T11:14:39.621Z,96.23
2022-10-18T11:15:39.594Z,96.43
2022-10-18T11:16:39.582Z,96.73
2022-10-18T11:17:39.558Z,97.13
2022-10-18T11:18:39.551Z,96.33
2022-10-18T11:19:39.587Z,96.28
2022-10-18T11:20:39.545Z,95.48
2022-10-18T11:21:39.520Z,95.32
2022-10-18T11:22:39.504Z,95.07
2022-10-18T11:23:39.486Z,94.42
2022-10-18T11:24:39.644Z,93.81
2022-10-18T11:25:39.499Z,94.42
2022-10-18T11:26:42.127Z,94.62
2022-10-18T11:27:39.479Z,95.02
2022-10-18T11:28:39.494Z,95.02
2022-10-18T11:29:39.420Z,95.32
2022-10-18T11:30:39.444Z,95.88
2022-10-18T11:31:39.457Z,96.78
2022-10-18T11:32:39.679Z,95.98
2022-10-18T11:34:07.020Z,94.53
2022-10-18T11:34:39.406Z,94.13
2022-10-18T11:35:39.411Z,95.03
2022-10-18T11:36:45.413Z,93.58
2022-10-18T11:37:39.623Z,93.78
2022-10-18T11:38:39.335Z,91.97
2022-10-18T11:39:39.346Z,93.38
2022-10-18T11:40:39.344Z,91.57
2022-10-18T11:41:39.331Z,91.93
2022-10-18T11:42:40.186Z,91.93
2022-10-18T11:44:01.071Z,91.72
2022-10-18T11:44:39.287Z,90.72
2022-10-18T11:45:39.294Z,90.42
2022-10-18T11:46:39.244Z,91.08
2022-10-18T11:47:39.289Z,90.58
2022-10-18T11:48:39.222Z,90.68
2022-10-18T11:49:39.230Z,90.37
2022-10-18T11:50:39.260Z,91.08
2022-10-18T11:52:03.296Z,88.12
2022-10-18T11:52:39.218Z,88.73
2022-10-18T11:53:39.207Z,89.13
2022-10-18T11:55:39.305Z,88.32
2022-10-18T11:56:39.184Z,90.33
2022-10-18T11:57:39.146Z,88.63
2022-10-18T11:58:39.142Z,88.43
2022-10-18T11:59:39.115Z,88.93
2022-10-18T12:00:39.158Z,88.07
2022-10-18T12:01:39.219Z,89.13
2022-10-18T12:02:39.137Z,89.03
2022-10-18T12:03:39.269Z,89.53
2022-10-18T12:04:49.052Z,90.03
2022-10-18T12:05:39.061Z,89.53
2022-10-18T12:06:39.088Z,89.33
2022-10-18T12:07:39.062Z,88.12
2022-10-18T12:08:39.056Z,87.93
2022-10-18T12:09:39.093Z,88.73
2022-10-18T12:10:59.891Z,88.17
2022-10-18T12:11:40.957Z,89.33
2022-10-18T12:12:39.038Z,87.96
2022-10-18T12:13:38.992Z,89.17
2022-10-18T12:14:38.950Z,87.16
2022-10-18T12:15:38.970Z,88.07
2022-10-18T12:16:50.951Z,85.96
2022-10-18T12:17:43.162Z,87.37
2022-10-18T12:18:38.949Z,89.47
2022-10-18T12:19:38.908Z,89.87
2022-10-18T12:20:38.932Z,88.37
2022-10-18T12:21:38.931Z,88.17
2022-10-18T12:22:38.899Z,88.27
2022-10-18T12:23:38.990Z,89.27
2022-10-18T12:24:38.884Z,88.87
2022-10-18T12:25:38.881Z,89.78
2022-10-18T12:26:38.868Z,89.37
2022-10-18T12:27:38.844Z,89.67
2022-10-18T12:28:38.892Z,89.78
2022-10-18T12:29:38.898Z,90.58
2022-10-18T12:30:38.881Z,88.47
2022-10-18T12:31:38.860Z,88.77
2022-10-18T12:32:38.828Z,87.87
2022-10-18T12:33:38.875Z,89.17
2022-10-18T12:34:38.753Z,90.17
2022-10-18T12:35:38.753Z,90.08
2022-10-18T12:36:38.808Z,90.22
2022-10-18T12:37:38.790Z,90.32
2022-10-18T12:38:38.826Z,90.72
2022-10-18T12:39:43.934Z,90.72
2022-10-18T12:40:38.703Z,91.02
2022-10-18T12:41:38.825Z,90.82
2022-10-18T12:42:38.978Z,90.82
2022-10-18T12:43:38.753Z,92.13
2022-10-18T12:44:38.663Z,91.06
2022-10-18T12:45:38.687Z,91.17
2022-10-18T12:46:38.649Z,92.17
2022-10-18T12:47:38.692Z,92.07
2022-10-18T12:48:38.621Z,92.68
2022-10-18T12:49:41.312Z,91.67
2022-10-18T12:50:38.590Z,91.87
2022-10-18T12:51:38.575Z,91.63
2022-10-18T12:52:38.667Z,91.47
2022-10-18T12:53:38.578Z,91.17
2022-10-18T12:54:38.568Z,91.13
2022-10-18T12:55:38.632Z,90.82
2022-10-18T12:56:38.522Z,90.52
2022-10-18T12:57:38.543Z,90.42
2022-10-18T12:58:38.510Z,90.62
2022-10-18T12:59:38.537Z,91.13